CheckWX is a tool to help pilots better visualize weather data.  It is not intended as a substitute for an official pre-flight weather briefing.

04:11:58 UTC

ENCN METAR
Kristiansand Airport
Kjevik, Norway
Current

22 mins ago

ENCN 180350Z AUTO 06005KT 1100 R03/P2000N R21/P2000N BR VV009 02/02 Q1011
Observed
Feb-18 @ 03:50 UTC
Wind
  • 060° at 5 KTS
Visibility
1,094 meters
Flight Rules
LIFR
Conditions
Mist
Cloud Levels
  • Vertical visibility at 900' AGL
Temperature
C / 36°F
Dewpoint
C / 36°F
Humidity
100%
Altimeter
29.85" Hg
Pressure
1010.92 hPa
Previous

52 mins ago

ENCN 180320Z AUTO VRB02KT 1600 BR OVC007/// 03/03 Q1012
Observed
Feb-18 @ 03:20 UTC
Wind
  • Variable at 2 KTS
Visibility
1,593 meters
Flight Rules
LIFR
Conditions
Mist
Cloud Levels
  • Overcast at 700' AGL
Temperature
C / 37°F
Dewpoint
C / 37°F
Humidity
100%
Altimeter
29.88" Hg
Pressure
1011.92 hPa
Previous

1 hour ago

ENCN 180250Z AUTO 05005KT 1600 BR OVC008/// 03/03 Q1012
Observed
Feb-18 @ 02:50 UTC
Wind
  • 050° at 5 KTS
Visibility
1,593 meters
Flight Rules
LIFR
Conditions
Mist
Cloud Levels
  • Overcast at 800' AGL
Temperature
C / 37°F
Dewpoint
C / 37°F
Humidity
100%
Altimeter
29.88" Hg
Pressure
1011.92 hPa